Time;durP1;ratioP1;P1;durP2;ratioP2;P2;SDS_P1;SDS_P2;PMS_P1;PMS_P2;Temp;Humidity;BMP_temperature;BMP_pressure;BME280_temperature;BME280_humidity;BME280_pressure;Samples;Min_cycle;Max_cycle;Signal;HPM_P1;HPM_P2
2023/05/13 00:00:42;;;;;;;9.50;6.45;;;;;;;13.87;59.93;100063.72;4483829;32;20115;-87
2023/05/13 00:03:07;;;;;;;9.43;6.53;;;;;;;13.92;59.94;100064.37;4484191;32;20100;-88
2023/05/13 00:05:32;;;;;;;9.95;6.95;;;;;;;13.86;59.93;100058.53;4485728;32;20124;-87
2023/05/13 00:08:00;;;;;;;9.73;6.78;;;;;;;13.80;59.94;100060.50;4491651;32;20158;-87
2023/05/13 00:10:26;;;;;;;11.30;6.00;;;;;;;13.89;59.94;100061.88;4498713;32;20077;-87
2023/05/13 00:12:51;;;;;;;9.18;6.37;;;;;;;13.89;59.95;100053.19;4483583;32;20060;-89
2023/05/13 00:15:17;;;;;;;8.85;6.50;;;;;;;13.98;59.95;100058.91;4490198;32;20126;-89
2023/05/13 00:17:42;;;;;;;8.70;5.90;;;;;;;14.01;59.94;100056.16;4482600;32;20104;-88
2023/05/13 00:20:08;;;;;;;9.45;6.60;;;;;;;13.90;59.95;100058.34;4477899;32;21986;-89
2023/05/13 00:22:33;;;;;;;8.55;6.22;;;;;;;13.88;59.95;100059.31;4460616;32;20092;-88
2023/05/13 00:24:59;;;;;;;8.60;5.90;;;;;;;13.90;59.95;100063.59;4457356;32;34140;-88
2023/05/13 00:27:24;;;;;;;7.65;5.70;;;;;;;13.68;59.93;100060.97;4485297;31;20120;-89
2023/05/13 00:29:49;;;;;;;7.53;5.72;;;;;;;13.68;59.93;100060.97;4482957;32;32993;-89
2023/05/13 00:32:15;;;;;;;9.13;5.50;;;;;;;13.76;59.94;100061.53;4483391;32;20140;-88
2023/05/13 00:34:40;;;;;;;7.75;5.95;;;;;;;13.78;59.93;100064.94;4484858;32;20103;-88
2023/05/13 00:37:06;;;;;;;9.60;6.12;;;;;;;13.85;59.93;100062.94;4484015;31;33458;-87
2023/05/13 00:39:31;;;;;;;7.80;5.68;;;;;;;13.69;59.93;100065.28;4469862;32;31799;-88
2023/05/13 00:41:58;;;;;;;8.65;5.90;;;;;;;13.62;59.92;100065.59;4484715;32;20163;-87
2023/05/13 00:44:23;;;;;;;9.68;6.00;;;;;;;13.73;59.94;100063.44;4483685;32;20081;-87
2023/05/13 00:46:48;;;;;;;11.40;6.00;;;;;;;13.65;59.92;100068.94;4457816;32;20143;-88
2023/05/13 00:49:14;;;;;;;9.70;6.57;;;;;;;13.66;59.93;100069.78;4448996;32;20188;-88
2023/05/13 00:51:39;;;;;;;9.70;6.50;;;;;;;13.79;59.94;100066.66;4470881;32;20142;-88
2023/05/13 00:54:05;;;;;;;9.00;6.20;;;;;;;13.77;59.94;100068.47;4458102;32;20149;-88
2023/05/13 00:56:30;;;;;;;7.72;5.78;;;;;;;13.75;59.94;100065.06;4470680;32;20126;-88
2023/05/13 00:58:55;;;;;;;8.38;6.40;;;;;;;13.74;59.94;100065.97;4471156;32;20120;-88
2023/05/13 01:01:43;;;;;;;8.40;5.95;;;;;;;13.83;59.94;100070.84;4471311;32;20225;-88
2023/05/13 01:04:26;;;;;;;10.35;6.10;;;;;;;13.80;59.94;100065.72;4484099;32;20088;-88
2023/05/13 01:07:13;;;;;;;8.80;6.10;;;;;;;13.77;59.93;100073.72;4471473;32;20104;-88
2023/05/13 01:10:02;;;;;;;8.38;6.22;;;;;;;13.64;59.92;100071.63;4485812;31;20432;-89
2023/05/13 01:12:35;;;;;;;11.35;6.12;;;;;;;13.64;59.94;100069.84;4473069;32;20084;-88
2023/05/13 01:15:04;;;;;;;7.40;5.65;;;;;;;13.65;59.92;100071.56;4471676;32;20080;-88
2023/05/13 01:17:51;;;;;;;9.60;6.20;;;;;;;13.71;59.93;100073.94;4471530;32;20557;-88
2023/05/13 01:20:19;;;;;;;8.00;5.78;;;;;;;13.66;59.93;100080.25;4485884;31;20101;-87
2023/05/13 01:22:44;;;;;;;9.82;5.90;;;;;;;13.57;59.92;100075.41;4471641;32;20456;-89
2023/05/13 01:25:10;;;;;;;7.28;5.45;;;;;;;13.59;59.93;100076.19;4485652;31;20099;-89
2023/05/13 01:27:35;;;;;;;7.90;5.87;;;;;;;13.66;59.93;100075.03;4471212;32;20104;-88
2023/05/13 01:30:01;;;;;;;11.45;5.60;;;;;;;13.65;59.94;100084.63;4471138;32;20430;-89
2023/05/13 01:32:26;;;;;;;8.02;5.60;;;;;;;13.57;59.92;100078.88;4471119;32;20401;-88
2023/05/13 01:34:52;;;;;;;8.52;5.90;;;;;;;13.60;59.92;100081.34;4458985;32;20082;-88
2023/05/13 01:37:18;;;;;;;9.05;5.70;;;;;;;13.59;59.93;100082.28;4473175;32;20422;-88
2023/05/13 01:39:43;;;;;;;7.55;6.05;;;;;;;13.63;59.93;100089.09;4484164;32;20147;-88
2023/05/13 01:42:09;;;;;;;6.65;5.50;;;;;;;13.62;59.92;100083.91;4458075;32;20120;-88
2023/05/13 01:44:34;;;;;;;8.38;5.37;;;;;;;13.55;59.92;100087.69;4471029;32;20172;-89
2023/05/13 01:47:00;;;;;;;10.75;5.80;;;;;;;13.60;59.92;100086.59;4470757;32;20139;-88
2023/05/13 01:49:25;;;;;;;7.70;5.72;;;;;;;13.48;59.92;100089.66;4457845;32;20120;-88
2023/05/13 01:51:50;;;;;;;7.75;5.57;;;;;;;13.60;59.92;100083.97;4470924;32;20135;-88
2023/05/13 01:54:16;;;;;;;8.27;5.80;;;;;;;13.64;59.94;100085.56;4484854;32;20112;-88
2023/05/13 01:56:41;;;;;;;10.38;5.53;;;;;;;13.71;59.93;100078.31;4485128;31;20116;-88
2023/05/13 01:59:08;;;;;;;7.87;5.55;;;;;;;13.77;59.94;100083.31;4483023;32;29431;-88
2023/05/13 02:01:33;;;;;;;7.90;5.90;;;;;;;13.76;59.93;100081.63;4483775;32;20455;-89
2023/05/13 02:03:59;;;;;;;6.93;5.43;;;;;;;13.59;59.93;100086.66;4470412;32;20109;-88
2023/05/13 02:06:26;;;;;;;8.40;5.97;;;;;;;13.79;59.94;100087.56;4483665;32;20105;-88
2023/05/13 02:08:52;;;;;;;12.37;5.93;;;;;;;13.59;59.93;100092.72;4470993;32;20526;-88
2023/05/13 02:11:17;;;;;;;7.62;6.07;;;;;;;13.61;59.92;100085.69;4470339;32;20104;-88
2023/05/13 02:13:42;;;;;;;8.05;5.60;;;;;;;13.61;59.92;100084.81;4470557;32;20108;-89
2023/05/13 02:16:09;;;;;;;9.02;6.22;;;;;;;13.42;59.92;100082.91;4471392;32;27805;-88
2023/05/13 02:18:35;;;;;;;8.43;6.10;;;;;;;13.38;59.92;100083.94;4487188;32;20176;-88
2023/05/13 02:21:00;;;;;;;10.07;6.07;;;;;;;13.55;59.92;100085.06;4485774;32;20468;-87
2023/05/13 02:23:26;;;;;;;7.50;5.82;;;;;;;13.45;59.92;100089.78;4472376;32;23714;-88
2023/05/13 02:25:51;;;;;;;8.63;6.60;;;;;;;13.55;59.92;100088.53;4487010;31;20133;-88
2023/05/13 02:28:16;;;;;;;8.30;6.18;;;;;;;13.38;59.91;100090.94;4472186;32;25880;-88
2023/05/13 02:30:42;;;;;;;8.90;6.47;;;;;;;13.42;59.92;100088.16;4472292;32;20103;-88
2023/05/13 02:33:07;;;;;;;9.93;7.30;;;;;;;13.40;59.91;100089.13;4486857;32;20088;-87
2023/05/13 02:35:33;;;;;;;10.13;6.90;;;;;;;13.37;59.91;100094.47;4485793;32;20449;-88
2023/05/13 02:37:58;;;;;;;13.02;7.32;;;;;;;13.43;59.92;100092.47;4459620;32;20398;-88
2023/05/13 02:40:23;;;;;;;10.85;7.28;;;;;;;13.48;59.91;100093.12;4486859;31;20145;-88
2023/05/13 02:42:50;;;;;;;10.18;7.62;;;;;;;13.42;59.92;100088.16;4485364;32;21210;-89
2023/05/13 02:45:16;;;;;;;12.98;7.65;;;;;;;13.44;59.92;100099.41;4485731;32;20105;-88
2023/05/13 02:47:42;;;;;;;10.05;8.00;;;;;;;13.37;59.91;100097.94;4472309;32;20189;-88
2023/05/13 02:50:08;;;;;;;12.55;8.30;;;;;;;13.47;59.91;100104.50;4485675;32;20097;-88
2023/05/13 02:52:35;;;;;;;10.57;8.10;;;;;;;13.38;59.91;100097.03;4486005;32;20084;-89
2023/05/13 02:55:01;;;;;;;11.00;8.13;;;;;;;13.44;59.92;100099.41;4486093;32;20131;-88
2023/05/13 02:57:26;;;;;;;11.93;8.25;;;;;;;13.43;59.92;100099.44;4487105;32;20093;-89
2023/05/13 02:59:52;;;;;;;10.60;7.80;;;;;;;13.35;59.92;100102.38;4486949;32;20440;-86
2023/05/13 03:02:17;;;;;;;10.07;7.68;;;;;;;13.38;59.92;100098.78;4486317;31;35385;-88
2023/05/13 03:04:42;;;;;;;10.15;7.87;;;;;;;13.35;59.92;100096.28;4484775;32;35118;-88
2023/05/13 03:07:08;;;;;;;9.85;7.15;;;;;;;13.30;59.91;100104.31;4485235;32;20144;-87
2023/05/13 03:09:34;;;;;;;12.15;8.25;;;;;;;13.31;59.91;100105.16;4485367;32;20110;-87
2023/05/13 03:11:59;;;;;;;10.88;7.68;;;;;;;13.34;59.90;100107.66;4486799;31;20088;-87
2023/05/13 03:14:25;;;;;;;10.85;7.50;;;;;;;13.46;59.92;100104.56;4485548;32;20108;-88
2023/05/13 03:16:50;;;;;;;12.75;7.53;;;;;;;13.35;59.91;100107.59;4485493;32;20096;-88
2023/05/13 03:19:16;;;;;;;10.13;7.40;;;;;;;13.31;59.91;100108.63;4485143;32;20474;-88
2023/05/13 03:21:41;;;;;;;12.37;7.32;;;;;;;13.29;59.91;100107.00;4472369;32;20374;-88
2023/05/13 03:24:07;;;;;;;11.23;6.87;;;;;;;13.28;59.91;100105.28;4471717;32;28936;-87
2023/05/13 03:26:32;;;;;;;9.45;6.35;;;;;;;13.19;59.91;100109.91;4472115;32;20115;-89
2023/05/13 03:28:57;;;;;;;9.85;7.15;;;;;;;13.25;59.90;100111.47;4486626;31;20132;-87
2023/05/13 03:31:23;;;;;;;8.40;6.00;;;;;;;13.19;59.91;100109.91;4486610;31;20147;-89
2023/05/13 03:33:48;;;;;;;11.07;6.95;;;;;;;13.25;59.91;100115.81;4458546;32;29304;-88
2023/05/13 03:36:14;;;;;;;11.85;6.78;;;;;;;13.27;59.92;100114.87;4471845;32;20128;-89
2023/05/13 03:38:39;;;;;;;9.25;6.50;;;;;;;13.20;59.91;100118.63;4459185;32;20089;-88
2023/05/13 03:41:04;;;;;;;11.75;5.93;;;;;;;13.05;59.90;100117.41;4485150;32;20116;-88
2023/05/13 03:43:30;;;;;;;9.38;6.15;;;;;;;13.10;59.89;100127.69;4471892;32;20618;-88
2023/05/13 03:45:56;;;;;;;8.55;5.70;;;;;;;13.20;59.91;100124.69;4485277;32;20343;-88
2023/05/13 03:48:21;;;;;;;8.75;6.47;;;;;;;13.19;59.91;100130.84;4486218;31;20100;-88
2023/05/13 03:50:46;;;;;;;9.93;6.18;;;;;;;13.16;59.90;100124.84;4485982;32;21187;-88
2023/05/13 03:53:12;;;;;;;7.43;5.57;;;;;;;13.18;59.90;100129.13;4486113;32;20153;-88
2023/05/13 03:55:37;;;;;;;9.63;6.03;;;;;;;13.09;59.89;100137.28;4485306;32;20093;-88
2023/05/13 03:58:13;;;;;;;8.65;6.15;;;;;;;12.98;59.90;100128.97;4471764;32;20136;-89
2023/05/13 04:00:38;;;;;;;10.30;6.68;;;;;;;13.21;59.90;100131.63;4471928;32;20076;-89
2023/05/13 04:03:04;;;;;;;8.57;5.50;;;;;;;13.13;59.90;100133.66;4472120;32;20573;-89
2023/05/13 04:05:29;;;;;;;12.35;6.87;;;;;;;13.08;59.90;100145.19;4484256;32;34478;-87
2023/05/13 04:07:54;;;;;;;10.93;6.45;;;;;;;12.91;59.89;100151.00;4485108;32;20080;-88
2023/05/13 04:10:20;;;;;;;7.40;5.90;;;;;;;13.08;59.90;100143.41;4484611;32;20225;-89
2023/05/13 04:12:45;;;;;;;8.20;5.65;;;;;;;13.07;59.90;100139.09;4471960;32;20160;-89
2023/05/13 04:15:11;;;;;;;10.73;6.22;;;;;;;13.23;59.91;100139.41;4471934;32;20105;-88
2023/05/13 04:17:36;;;;;;;9.57;6.28;;;;;;;13.06;59.90;100147.84;4484884;32;20124;-89
2023/05/13 04:20:02;;;;;;;8.75;5.80;;;;;;;13.05;59.90;100148.75;4472567;32;20402;-89
2023/05/13 04:22:27;;;;;;;9.20;6.37;;;;;;;13.09;59.89;100157.34;4486574;32;20148;-89
2023/05/13 04:24:55;;;;;;;9.75;5.80;;;;;;;13.09;59.90;100152.97;4473050;32;20472;-89
2023/05/13 04:27:22;;;;;;;7.37;5.57;;;;;;;13.24;59.91;100148.09;4472320;32;20106;-89
2023/05/13 04:29:47;;;;;;;10.57;5.82;;;;;;;13.17;59.90;100150.06;4471990;32;20185;-88
2023/05/13 04:32:16;;;;;;;9.02;5.90;;;;;;;13.20;59.91;100152.59;4458575;32;20096;-90
2023/05/13 04:34:42;;;;;;;9.95;6.37;;;;;;;13.24;59.90;100148.09;4472324;32;20556;-89
2023/05/13 04:37:07;;;;;;;10.63;5.43;;;;;;;13.31;59.91;100145.22;4484159;32;20099;-89
2023/05/13 04:39:33;;;;;;;9.80;5.32;;;;;;;13.34;59.90;100149.50;4471193;32;20114;-89
2023/05/13 04:41:58;;;;;;;12.43;6.70;;;;;;;13.40;59.91;100152.72;4458490;32;20127;-90
2023/05/13 04:44:24;;;;;;;8.13;5.80;;;;;;;13.41;59.91;100159.66;4471731;32;20104;-90
2023/05/13 04:46:49;;;;;;;7.82;5.78;;;;;;;13.29;59.91;100156.66;4458596;32;20084;-89
2023/05/13 04:49:15;;;;;;;10.25;6.32;;;;;;;13.32;59.91;100148.69;4458576;32;20106;-89
2023/05/13 04:51:40;;;;;;;8.57;5.80;;;;;;;13.39;59.92;100158.87;4458356;32;20164;-90
2023/05/13 04:54:05;;;;;;;8.57;5.68;;;;;;;13.33;59.91;100155.63;4471582;32;20092;-89
2023/05/13 04:56:31;;;;;;;7.35;5.68;;;;;;;13.51;59.93;100161.03;4470731;32;20188;-88
2023/05/13 04:58:56;;;;;;;8.60;5.72;;;;;;;13.61;59.92;100169.37;4484352;32;20412;-89
2023/05/13 05:01:22;;;;;;;8.45;6.35;;;;;;;13.62;59.93;100173.69;4484316;32;20141;-89
2023/05/13 05:03:47;;;;;;;8.30;5.30;;;;;;;13.64;59.94;100169.25;4484505;32;20093;-88
2023/05/13 05:06:12;;;;;;;11.75;6.20;;;;;;;13.58;59.93;100172.13;4484194;32;21284;-88
2023/05/13 05:08:38;;;;;;;11.88;6.55;;;;;;;13.69;59.93;100175.16;4471339;32;20428;-88
2023/05/13 05:11:04;;;;;;;8.90;6.03;;;;;;;13.78;59.93;100179.22;4457640;32;27429;-89
2023/05/13 05:13:29;;;;;;;8.45;5.32;;;;;;;13.56;59.92;100173.94;4458406;32;20586;-89
2023/05/13 05:15:55;;;;;;;7.15;4.95;;;;;;;13.69;59.93;100175.16;4471260;32;20148;-89
2023/05/13 05:18:20;;;;;;;6.97;4.97;;;;;;;13.67;59.93;100171.75;4471061;32;20366;-88
2023/05/13 05:20:45;;;;;;;8.60;5.28;;;;;;;13.53;59.92;100174.06;4470821;32;20210;-88
2023/05/13 05:23:11;;;;;;;7.40;5.72;;;;;;;13.36;59.91;100181.66;4471085;32;20160;-89
2023/05/13 05:25:36;;;;;;;9.05;5.68;;;;;;;13.42;59.92;100174.44;4457493;32;34969;-89
2023/05/13 05:28:03;;;;;;;7.50;5.15;;;;;;;13.33;59.91;100185.25;4471331;32;20084;-88
2023/05/13 05:30:31;;;;;;;7.65;5.75;;;;;;;13.44;59.92;100185.69;4484464;32;20088;-89
2023/05/13 05:32:57;;;;;;;9.00;5.62;;;;;;;13.54;59.92;100186.22;4471518;32;20096;-88
2023/05/13 05:35:22;;;;;;;7.35;5.53;;;;;;;13.56;59.92;100183.53;4484442;32;20106;-89
2023/05/13 05:37:48;;;;;;;7.95;5.25;;;;;;;13.72;59.93;100182.03;4471438;32;20092;-87
2023/05/13 05:40:13;;;;;;;9.77;5.15;;;;;;;13.76;59.93;100192.34;4470607;32;32322;-89
2023/05/13 05:42:39;;;;;;;7.12;5.50;;;;;;;13.60;59.93;100192.97;4471910;32;20466;-88
2023/05/13 05:45:05;;;;;;;8.27;5.80;;;;;;;13.62;59.93;100191.16;4471809;32;34153;-89
2023/05/13 05:47:30;;;;;;;7.18;4.95;;;;;;;13.66;59.93;100183.13;4472784;32;20726;-89
2023/05/13 05:49:56;;;;;;;8.07;5.00;;;;;;;13.76;59.94;100175.81;4485796;31;27655;-88
2023/05/13 05:52:21;;;;;;;6.72;4.55;;;;;;;13.58;59.93;100179.09;4487397;31;20460;-88
2023/05/13 05:54:47;;;;;;;7.22;5.25;;;;;;;13.76;59.93;100175.81;4485417;32;28371;-89
2023/05/13 05:57:12;;;;;;;7.95;5.12;;;;;;;13.74;59.94;100173.25;4485774;32;20127;-87
2023/05/13 05:59:37;;;;;;;12.25;5.78;;;;;;;13.81;59.94;100176.47;4485688;32;20433;-88
2023/05/13 06:02:03;;;;;;;8.93;5.40;;;;;;;13.77;59.93;100185.34;4485866;32;20179;-88
2023/05/13 06:04:28;;;;;;;7.68;4.68;;;;;;;13.59;59.93;100186.91;4487257;31;20420;-87
2023/05/13 06:06:54;;;;;;;8.93;5.12;;;;;;;13.67;59.93;100192.69;4487216;32;20457;-87
2023/05/13 06:09:19;;;;;;;8.52;5.28;;;;;;;13.90;59.95;100188.34;4487143;32;20073;-89
2023/05/13 06:11:45;;;;;;;7.00;4.78;;;;;;;13.96;59.95;100194.22;4459608;31;20548;-87
2023/05/13 06:14:10;;;;;;;7.03;4.55;;;;;;;13.98;59.95;100195.00;4459624;32;20177;-87
2023/05/13 06:16:35;;;;;;;10.52;5.18;;;;;;;14.02;59.94;100188.72;4472585;32;20409;-87
2023/05/13 06:19:01;;;;;;;9.73;4.57;;;;;;;14.01;59.95;100196.66;4472153;32;20134;-87
2023/05/13 06:21:27;;;;;;;6.97;4.53;;;;;;;14.09;59.95;100202.41;4485611;32;20144;-88
2023/05/13 06:23:52;;;;;;;8.00;5.12;;;;;;;14.10;59.96;100199.75;4471877;32;33300;-87
2023/05/13 06:26:17;;;;;;;8.23;5.10;;;;;;;14.18;59.96;100203.81;4486453;31;27120;-88
2023/05/13 06:28:43;;;;;;;8.77;4.85;;;;;;;14.28;59.97;100205.19;4485391;32;20108;-88
2023/05/13 06:31:08;;;;;;;8.75;5.37;;;;;;;14.38;59.97;100207.34;4485491;32;20139;-88
2023/05/13 06:33:34;;;;;;;8.15;4.35;;;;;;;14.58;59.98;100203.97;4485753;32;20160;-87
2023/05/13 06:35:59;;;;;;;7.30;4.80;;;;;;;14.77;59.99;100200.59;4487005;32;20479;-87
2023/05/13 06:38:24;;;;;;;6.75;4.65;;;;;;;14.67;59.99;100203.59;4485044;32;28861;-87
2023/05/13 06:40:50;;;;;;;7.60;4.75;;;;;;;14.76;59.98;100201.50;4486815;31;20148;-87
2023/05/13 06:43:16;;;;;;;5.97;4.32;;;;;;;14.76;59.98;100204.97;4485746;32;20143;-87
2023/05/13 06:45:42;;;;;;;8.90;5.05;;;;;;;14.94;60.00;100204.19;4485984;32;20159;-87
2023/05/13 06:48:08;;;;;;;8.60;5.18;;;;;;;15.12;60.01;100194.66;4485645;32;20381;-88
2023/05/13 06:50:34;;;;;;;5.28;4.15;;;;;;;15.15;60.01;100199.81;4485761;32;20096;-87
2023/05/13 06:53:00;;;;;;;8.15;4.78;;;;;;;15.14;60.00;100200.72;4485130;32;21803;-87
2023/05/13 06:55:26;;;;;;;7.37;4.32;;;;;;;15.20;60.01;100203.06;4472591;32;20135;-87
2023/05/13 06:57:51;;;;;;;6.87;4.62;;;;;;;15.08;60.00;100203.59;4485690;32;20104;-87
2023/05/13 07:00:17;;;;;;;5.35;4.10;;;;;;;14.91;59.99;100193.00;4472235;32;20140;-87
2023/05/13 07:02:42;;;;;;;6.72;4.53;;;;;;;15.01;59.99;100189.06;4485274;32;20080;-88
2023/05/13 07:05:09;;;;;;;5.75;4.37;;;;;;;14.94;59.99;100190.25;4485858;32;20361;-87
2023/05/13 07:07:34;;;;;;;6.10;4.30;;;;;;;14.93;59.99;100192.00;4459952;32;20120;-87
2023/05/13 07:10:00;;;;;;;6.37;4.78;;;;;;;15.08;60.00;100187.84;4472018;32;28294;-88
2023/05/13 07:12:25;;;;;;;9.07;4.35;;;;;;;15.19;60.01;100184.78;4485144;32;20476;-88
2023/05/13 07:14:51;;;;;;;6.03;4.40;;;;;;;15.27;60.01;100186.13;4485145;32;20107;-87
2023/05/13 07:17:16;;;;;;;5.40;3.62;;;;;;;15.24;60.01;100185.44;4485482;32;20100;-88
2023/05/13 07:19:41;;;;;;;5.70;3.90;;;;;;;15.42;60.02;100179.37;4459157;32;20449;-88
2023/05/13 07:22:07;;;;;;;6.65;3.45;;;;;;;15.25;60.02;100185.34;4472266;32;20108;-88
2023/05/13 07:24:32;;;;;;;5.10;3.40;;;;;;;15.48;60.03;100186.09;4485552;32;20133;-88
2023/05/13 07:26:58;;;;;;;6.37;3.05;;;;;;;15.64;60.04;100195.88;4485305;32;20122;-87
2023/05/13 07:29:24;;;;;;;4.85;3.37;;;;;;;15.65;60.04;100197.56;4485760;31;32661;-88
2023/05/13 07:31:49;;;;;;;5.07;3.75;;;;;;;15.74;60.04;100192.81;4486575;31;20120;-88
2023/05/13 07:34:15;;;;;;;7.32;4.15;;;;;;;15.73;60.04;100194.59;4485651;32;20132;-88
2023/05/13 07:36:40;;;;;;;7.32;3.42;;;;;;;15.77;60.04;100190.03;4471766;32;20148;-89
2023/05/13 07:39:07;;;;;;;5.10;3.53;;;;;;;15.77;60.04;100211.03;4471876;32;20101;-87
2023/05/13 07:41:33;;;;;;;6.82;3.50;;;;;;;15.70;60.04;100207.00;4472089;32;20076;-87
2023/05/13 07:43:58;;;;;;;5.18;3.08;;;;;;;15.81;60.04;100194.22;4472113;32;20119;-88
2023/05/13 07:46:23;;;;;;;5.60;2.87;;;;;;;15.90;60.05;100201.69;4471301;32;32011;-88
2023/05/13 07:48:49;;;;;;;7.40;3.47;;;;;;;15.94;60.05;100196.22;4472125;32;20160;-88
2023/05/13 07:51:17;;;;;;;3.87;2.83;;;;;;;16.12;60.06;100193.66;4486439;31;20435;-88
2023/05/13 07:53:43;;;;;;;4.35;2.80;;;;;;;16.25;60.07;100197.38;4472352;32;20088;-87
2023/05/13 07:56:09;;;;;;;4.68;2.50;;;;;;;16.26;60.07;100207.81;4472264;32;20512;-87
2023/05/13 07:58:34;;;;;;;3.78;2.25;;;;;;;16.27;60.07;100204.25;4458906;32;20117;-88
2023/05/13 08:01:00;;;;;;;3.67;2.70;;;;;;;16.24;60.07;100212.28;4486214;31;20084;-89
2023/05/13 08:03:25;;;;;;;4.03;2.65;;;;;;;16.21;60.07;100204.56;4471769;32;20098;-87
2023/05/13 08:05:51;;;;;;;3.95;2.75;;;;;;;16.18;60.07;100207.34;4471998;32;20116;-88
2023/05/13 08:08:16;;;;;;;3.67;2.87;;;;;;;16.40;60.08;100211.56;4471825;32;20136;-87
2023/05/13 08:10:41;;;;;;;4.50;2.70;;;;;;;16.58;60.09;100208.91;4471335;32;24291;-90
2023/05/13 08:13:07;;;;;;;6.37;2.70;;;;;;;16.61;60.08;100213.16;4457561;32;20461;-89
2023/05/13 08:15:32;;;;;;;3.67;2.75;;;;;;;16.62;60.08;100221.88;4471722;32;23223;-89
2023/05/13 08:17:58;;;;;;;7.37;2.90;;;;;;;16.61;60.08;100217.56;4458966;32;20139;-89
2023/05/13 08:20:28;;;;;;;5.45;3.22;;;;;;;16.47;60.09;100226.09;4471347;32;25919;-90
2023/05/13 08:22:55;;;;;;;5.28;2.40;;;;;;;16.51;60.08;100233.75;4472309;32;20123;-90
2023/05/13 08:25:20;;;;;;;7.85;2.87;;;;;;;16.51;60.08;100228.50;4472232;32;20177;-88
2023/05/13 08:27:46;;;;;;;4.75;3.37;;;;;;;16.63;60.09;100234.94;4472467;32;20100;-87
2023/05/13 08:30:12;;;;;;;5.45;3.80;;;;;;;16.65;60.09;100237.50;4486031;32;26793;-90
2023/05/13 08:32:37;;;;;;;9.80;4.07;;;;;;;16.47;60.09;100237.47;4474440;32;20076;-90
2023/05/13 08:35:03;;;;;;;5.35;4.15;;;;;;;16.24;60.07;100243.81;4472468;32;20161;-89
2023/05/13 08:37:28;;;;;;;6.20;3.92;;;;;;;16.08;60.06;100255.94;4486208;31;20084;-90
2023/05/13 08:39:55;;;;;;;6.93;4.30;;;;;;;16.22;60.06;100250.91;4484559;32;20108;-90
2023/05/13 08:42:21;;;;;;;6.53;4.18;;;;;;;15.94;60.04;100247.88;4459068;32;20470;-89
2023/05/13 08:44:47;;;;;;;4.78;3.92;;;;;;;15.98;60.05;100254.69;4484933;32;20100;-90
2023/05/13 08:47:20;;;;;;;11.85;8.75;;;;;;;16.11;60.06;100245.34;4484936;32;20088;-89
2023/05/13 08:49:46;;;;;;;5.60;4.25;;;;;;;16.17;60.07;100249.44;4484745;32;20088;-87
2023/05/13 08:52:11;;;;;;;5.78;3.65;;;;;;;16.39;60.07;100250.13;4471262;32;28020;-90
2023/05/13 08:54:37;;;;;;;9.60;3.97;;;;;;;16.49;60.08;100251.38;4471777;32;20088;-91
2023/05/13 08:57:03;;;;;;;4.95;3.67;;;;;;;16.56;60.09;100246.66;4471405;32;20119;-89
2023/05/13 08:59:29;;;;;;;4.78;3.40;;;;;;;16.64;60.10;100244.53;4471734;32;20140;-89
2023/05/13 09:01:55;;;;;;;6.90;3.78;;;;;;;16.42;60.08;100247.34;4484897;32;20150;-90
2023/05/13 09:04:20;;;;;;;7.97;4.10;;;;;;;16.60;60.09;100242.97;4471742;32;20172;-89
2023/05/13 09:06:47;;;;;;;6.55;4.18;;;;;;;16.49;60.08;100247.91;4484569;32;20140;-90
2023/05/13 09:09:12;;;;;;;4.78;2.90;;;;;;;16.71;60.10;100243.31;4458486;32;20159;-90
2023/05/13 09:11:39;;;;;;;5.32;3.72;;;;;;;16.79;60.09;100246.41;4471442;32;20413;-89
2023/05/13 09:14:06;;;;;;;4.07;2.80;;;;;;;17.00;60.10;100249.75;4484677;32;20088;-88
2023/05/13 09:16:31;;;;;;;4.50;3.37;;;;;;;17.05;60.11;100239.03;4471745;32;20108;-89
2023/05/13 09:18:58;;;;;;;7.10;3.53;;;;;;;17.05;60.11;100239.03;4458281;32;20473;-90
2023/05/13 09:21:28;;;;;;;5.75;3.40;;;;;;;17.14;60.11;100238.53;4471626;32;20131;-90
2023/05/13 09:24:07;;;;;;;;;;;;;;;17.49;60.14;100234.06;4471837;32;20113;-89
2023/05/13 09:26:32;;;;;;;4.93;3.65;;;;;;;17.72;60.15;100239.00;4485790;31;20003;-90
2023/05/13 09:29:13;;;;;;;4.60;3.22;;;;;;;17.75;60.14;100225.69;4483667;32;20373;-90
2023/05/13 09:31:38;;;;;;;3.53;3.03;;;;;;;17.68;60.15;100237.47;4485381;32;20106;-89
2023/05/13 09:34:04;;;;;;;4.75;3.22;;;;;;;17.73;60.15;100231.94;4485352;32;20104;-87
2023/05/13 09:36:29;;;;;;;4.15;3.15;;;;;;;17.58;60.14;100240.66;4485052;32;20160;-88
2023/05/13 09:38:54;;;;;;;6.05;3.50;;;;;;;17.50;60.13;100244.50;4470607;32;23487;-90
2023/05/13 09:41:20;;;;;;;3.83;3.22;;;;;;;17.42;60.13;100243.22;4457829;32;20095;-87
2023/05/13 09:43:46;;;;;;;5.53;3.42;;;;;;;17.43;60.13;100240.50;4471018;32;20185;-88
2023/05/13 09:46:11;;;;;;;4.32;3.30;;;;;;;17.35;60.13;100247.13;4484430;32;20431;-88
2023/05/13 09:48:36;;;;;;;6.85;3.62;;;;;;;17.32;60.13;100244.66;4457121;32;36703;-89
2023/05/13 09:51:02;;;;;;;5.00;3.08;;;;;;;17.50;60.13;100244.50;4458366;32;20128;-90
2023/05/13 09:53:28;;;;;;;8.70;2.97;;;;;;;17.82;60.15;100238.53;4471462;32;20180;-88
2023/05/13 09:55:57;;;;;;;6.57;3.55;;;;;;;17.98;60.16;100228.81;4458291;32;20192;-87
2023/05/13 09:58:24;;;;;;;6.60;3.40;;;;;;;18.14;60.17;100227.06;4471399;32;20216;-87
2023/05/13 10:00:49;;;;;;;6.40;3.10;;;;;;;18.30;60.17;100221.78;4483406;32;20092;-88
2023/05/13 10:03:15;;;;;;;4.78;3.05;;;;;;;18.27;60.17;100220.19;4483760;32;20672;-87
2023/05/13 10:05:40;;;;;;;3.90;2.90;;;;;;;18.29;60.18;100236.75;4483797;32;20092;-87
2023/05/13 10:08:10;;;;;;;7.85;3.47;;;;;;;18.35;60.18;100238.19;4483731;32;20459;-86
2023/05/13 10:10:36;;;;;;;3.92;3.00;;;;;;;18.51;60.19;100233.75;4470607;32;20096;-88
2023/05/13 10:13:07;;;;;;;4.82;2.90;;;;;;;18.66;60.20;100230.25;4457483;32;20101;-87
2023/05/13 10:15:33;;;;;;;4.55;2.95;;;;;;;18.59;60.19;100225.41;4483682;32;20108;-88
2023/05/13 10:17:58;;;;;;;5.28;3.22;;;;;;;18.68;60.20;100228.38;4457458;32;20084;-86
2023/05/13 10:20:27;;;;;;;6.28;3.33;;;;;;;18.63;60.20;100225.16;4470375;32;20465;-86
2023/05/13 10:22:53;;;;;;;5.10;3.00;;;;;;;18.64;60.20;100233.91;4457020;32;20109;-88
2023/05/13 10:25:19;;;;;;;6.78;3.00;;;;;;;18.74;60.20;100224.56;4456355;32;20113;-85
2023/05/13 10:27:44;;;;;;;5.47;3.15;;;;;;;18.49;60.19;100224.25;4469303;32;20175;-86
2023/05/13 10:30:10;;;;;;;3.58;2.70;;;;;;;18.48;60.19;100223.37;4456138;32;20101;-86
2023/05/13 10:32:37;;;;;;;5.32;2.58;;;;;;;18.59;60.20;100218.34;4482318;32;20180;-87
2023/05/13 10:35:16;;;;;;;10.00;4.03;;;;;;;18.52;60.19;100219.63;4469289;32;20122;-88
2023/05/13 10:38:00;;;;;;;3.53;2.92;;;;;;;18.65;60.20;100223.28;4456632;32;20115;-86
2023/05/13 10:40:47;;;;;;;6.20;2.92;;;;;;;18.36;60.18;100226.72;4478173;32;20101;-87
2023/05/13 10:43:24;;;;;;;7.95;3.83;;;;;;;18.31;60.19;100236.66;4481048;32;20112;-86
2023/05/13 10:46:01;;;;;;;5.75;3.60;;;;;;;18.30;60.18;100238.44;4470589;32;20087;-88
2023/05/13 10:48:37;;;;;;;10.10;3.67;;;;;;;17.98;60.16;100239.38;4483982;32;20096;-85
2023/05/13 10:51:06;;;;;;;5.93;3.40;;;;;;;17.94;60.16;100238.69;4471174;32;20115;-88
2023/05/13 10:53:35;;;;;;;9.20;3.87;;;;;;;17.67;60.15;100246.28;4458475;32;20097;-87
2023/05/13 10:56:02;;;;;;;5.28;3.53;;;;;;;17.78;60.15;100241.31;4483584;32;20085;-86
2023/05/13 10:58:31;;;;;;;4.80;3.60;;;;;;;17.60;60.14;100246.69;4483432;32;20084;-87
2023/05/13 11:01:24;;;;;;;6.22;3.62;;;;;;;17.52;60.14;100243.63;4457702;32;20080;-87
2023/05/13 11:03:54;;;;;;;6.28;3.85;;;;;;;17.63;60.15;100249.16;4485233;31;20495;-87
2023/05/13 11:06:22;;;;;;;6.60;3.58;;;;;;;17.68;60.15;100234.81;4467862;32;20456;-87
2023/05/13 11:08:48;;;;;;;5.55;3.78;;;;;;;17.65;60.15;100239.38;4455622;32;20173;-89
2023/05/13 11:11:17;;;;;;;6.85;3.30;;;;;;;17.56;60.15;100234.63;4481105;32;20080;-88
2023/05/13 11:13:43;;;;;;;8.68;4.12;;;;;;;17.72;60.15;100235.50;4484874;32;20101;-86
2023/05/13 11:16:10;;;;;;;8.00;3.87;;;;;;;17.85;60.16;100233.94;4486381;31;20129;-86
2023/05/13 11:18:36;;;;;;;6.95;4.28;;;;;;;17.81;60.16;100229.78;4460747;32;20231;-87
2023/05/13 11:21:05;;;;;;;8.18;4.45;;;;;;;17.89;60.16;100222.28;4488340;31;20093;-87